Have a Safe July 4th! 

Flight Track Log - Related Links

Times and Time Zones

All times are in EDT time to prevent confusion due to time zone crossing. See the UAL4380 flight status page for this flight to view local times or setup timezone preferences in your user account.

Time Position Orientation Groundspeed Altitude Reporting Facility
EDT Latitude Longitude Course Direction KTS MPH feet Rate Location/Type
Sun 10:07:23 AM 30.6725 -88.2292 252° West 175 201 1,100  Level Houston Center
Sun 10:08:24 AM 30.6347 -88.2469 202° Southwest 211 243 3,000 1,854 Climbing Houston Center
Sun 10:09:26 AM 30.6269 -88.3228 263° West 236 272 4,900 2,146 Climbing Houston Center
Sun 10:10:27 AM 30.6183 -88.4058 263° West 253 291 7,400 2,262 Climbing Houston Center
Sun 10:11:00 AM 30.5898 -88.7208 252° West  Level FlightAware Approximate
Sun 10:11:28 AM 30.6083 -88.4906 262° West 261 300 9,500  Level Houston Center
Sun 10:12:00 AM 30.5624 -88.8213 252° West  Level FlightAware Approximate
Sun 10:12:30 AM 30.5958 -88.5828 261° West 281 323 10,800  Level Houston Center
Sun 10:13:31 AM 30.5842 -88.6864 263° West 313 360 11,900 1,366 Climbing Houston Center
Sun 10:14:33 AM 30.5719 -88.7950 263° West 333 383 13,600 1,659 Climbing Houston Center
Sun 10:15:34 AM 30.5333 -88.9164 250° West 335 386 15,300 1,377 Climbing Houston Center
Sun 10:16:35 AM 30.5006 -89.0103 248° West 337 388 16,400 1,024 Climbing Houston Center
Sun 10:17:37 AM 30.4653 -89.1139 248° West 345 397 17,400 1,073 Climbing Houston Center
Sun 10:18:38 AM 30.4283 -89.2194 248° West 353 406 18,600 1,122 Climbing Houston Center
Sun 10:19:40 AM 30.3925 -89.3264 249° West 355 409 19,700 1,122 Climbing Houston Center
Sun 10:20:41 AM 30.3458 -89.4572 248° West 364 419 20,900 1,073 Climbing Houston Center
Sun 10:21:43 AM 30.3069 -89.5697 248° West 372 428 21,900 976 Climbing Houston Center
Sun 10:22:44 AM 30.2664 -89.6819 247° West 373 429 22,900 976 Climbing Houston Center
Sun 10:23:46 AM 30.2236 -89.7986 247° West 382 440 23,900 976 Climbing Houston Center
Sun 10:24:47 AM 30.1836 -89.9139 248° West 381 438 24,900 976 Climbing Houston Center
Sun 10:25:49 AM 30.1453 -90.0247 248° West 373 429 25,900 1,171 Climbing Houston Center
Sun 10:26:50 AM 30.1056 -90.1339 247° West 367 422 27,300 1,024 Climbing Houston Center
Sun 10:27:52 AM 30.0706 -90.2419 250° West 359 413 28,000 341 Climbing Houston Center
Sun 10:28:53 AM 30.0822 -90.3636 276° West 379 436 28,000 -49 Level Houston Center
Sun 10:29:55 AM 30.0803 -90.4869 269° West 388 447 27,900  Descending Houston Center
Sun 10:30:56 AM 30.0564 -90.6100 257° West 394 453 28,000 49 Climbing Houston Center
Sun 10:31:58 AM 30.0283 -90.7347 255° West 402 463 28,000  Level Houston Center
Sun 10:32:59 AM 29.9947 -90.8872 256° West 408 470 28,000  Level Houston Center
Sun 10:34:01 AM 29.9664 -91.0144 256° West 410 472 28,000  Level Houston Center
Sun 10:35:02 AM 29.9369 -91.1422 255° West 413 475 28,000  Level Houston Center
Sun 10:36:04 AM 29.9075 -91.2706 255° West 415 478 28,000  Level Houston Center
Sun 10:37:05 AM 29.8789 -91.3992 256° West 415 478 28,000  Level Houston Center
Sun 10:38:07 AM 29.8492 -91.5292 255° West 419 482 28,000  Level Houston Center
Sun 10:39:09 AM 29.8197 -91.6586 255° West 418 481 28,000  Level Houston Center
Sun 10:40:10 AM 29.7842 -91.8117 255° West 419 482 28,000  Level Houston Center
Sun 10:41:12 AM 29.7539 -91.9411 255° West 418 481 28,000  Level Houston Center
Sun 10:42:13 AM 29.7244 -92.0703 255° West 418 481 28,000  Level Houston Center
Sun 10:43:15 AM 29.6942 -92.2006 255° West 419 482 28,000  Level Houston Center
Sun 10:44:16 AM 29.6631 -92.3319 255° West 423 487 28,000  Level Houston Center
Sun 10:45:18 AM 29.6317 -92.4619 255° West 423 487 28,000  Level Houston Center
Sun 10:46:20 AM 29.6008 -92.5922 255° West 422 486 28,000  Level Houston Center
Sun 10:47:21 AM 29.5694 -92.7242 255° West 427 491 28,000  Level Houston Center
Sun 10:48:23 AM 29.5381 -92.8558 255° West 426 490 28,000 -484 Level Houston Center
Sun 10:49:25 AM 29.5008 -93.0119 255° West 423 487 27,000 -1,024 Descending Houston Center
Sun 10:50:26 AM 29.4869 -93.1447 263° West 418 481 25,900 -1,024 Descending Houston Center
Sun 10:51:28 AM 29.4933 -93.2769 273° West 414 476 24,900 -1,024 Descending Houston Center
Sun 10:52:29 AM 29.4975 -93.4075 272° West 411 473 23,800 -1,024 Descending Houston Center
Sun 10:53:31 AM 29.5036 -93.5350 273° West 402 463 22,800 -1,016 Descending Houston Center
Sun 10:54:33 AM 29.5094 -93.6661 273° West 408 470 21,700 -1,073 Descending Houston Center
Sun 10:55:34 AM 29.5139 -93.7939 272° West 403 464 20,600 -1,122 Descending Houston Center
Sun 10:56:36 AM 29.5175 -93.9172 272° West 390 449 19,400 -1,412 Descending Houston Center
Sun 10:56:59 AM 29.5208 -93.9817 273° West 384 442 18,600 -1,839 Descending Houston Center
Sun 10:57:38 AM 29.5225 -94.0658 271° West 389 448 17,500 -1,680 Descending Houston Center
Sun 10:58:39 AM 29.5267 -94.1700 273° West 386 444 15,800 -2,049 Descending Houston Center
Sun 10:59:41 AM 29.5322 -94.3139 273° West 377 434 13,300 -2,177 Descending Houston Center
Sun 11:00:43 AM 29.5631 -94.4128 290° West 338 389 11,300 -1,561 Descending Houston Center
Sun 11:01:44 AM 29.6008 -94.5025 296° West 316 364 10,100 -629 Descending Houston Center
Sun 11:02:47 AM 29.6436 -94.6003 297° West 322 371 10,000 -48 Descending Houston Center
Sun 11:03:48 AM 29.6819 -94.6942 295° West 326 375 10,000  Level Houston Center
Sun 11:04:49 AM 29.7253 -94.7944 296° West 325 374 10,000 -49 Level Houston Center
Sun 11:05:50 AM 29.7611 -94.8839 295° West 309 356 9,900 -585 Descending Houston Center
Sun 11:06:52 AM 29.7975 -94.9653 297° West 291 335 8,800 -984 Descending Houston Center
Sun 11:07:52 AM 29.8289 -95.0442 295° West 281 323 7,900 -992 Descending Houston Center
Sun 11:08:53 AM 29.8661 -95.1286 297° West 279 321 6,800 -878 Descending Houston Center
Sun 11:09:55 AM 29.8967 -95.2069 294° West 265 305 6,100 -390 Descending Houston Center
Sun 11:10:56 AM 29.9003 -95.2931 273° West 274 315 6,000 -49 Descending Houston Center
Sun 11:11:57 AM 29.8978 -95.3803 268° West 275 316 6,000 49 Level Houston Center
Sun 11:12:59 AM 29.8992 -95.4644 271° West 243 280 6,100 -439 Climbing Houston Center
Sun 11:14:00 AM 29.9000 -95.5439 271° West 241 277 5,100 -541 Descending Houston Center
Sun 11:15:01 AM 29.9247 -95.6058 295° West 232 267 5,000 -590 Descending Houston Center
Sun 11:16:02 AM 29.9825 -95.5725 27° Northeast 224 258 3,900 -1,082 Descending Houston Center
Sun 11:17:03 AM 29.9911 -95.5064 81° East 213 245 2,800 -1,082 Descending Houston Center

Login

Don't have an account? Register now (free) for customized features, flight alerts, and more!